sensor_id;sensor_type;location;lat;lon;timestamp;P1;durP1;ratioP1;P2;durP2;ratioP2
48040;SDS011;33815;48.386;11.738;2022-07-10T00:00:51;7.40;;;4.07;;
48040;SDS011;33815;48.386;11.738;2022-07-10T00:03:16;4.85;;;4.45;;
48040;SDS011;33815;48.386;11.738;2022-07-10T00:05:42;4.97;;;4.57;;
48040;SDS011;33815;48.386;11.738;2022-07-10T00:08:07;5.22;;;3.88;;
48040;SDS011;33815;48.386;11.738;2022-07-10T00:10:32;4.93;;;4.30;;
48040;SDS011;33815;48.386;11.738;2022-07-10T00:12:58;6.50;;;4.70;;
48040;SDS011;33815;48.386;11.738;2022-07-10T00:15:24;6.85;;;4.10;;
48040;SDS011;33815;48.386;11.738;2022-07-10T00:17:49;4.65;;;4.25;;
48040;SDS011;33815;48.386;11.738;2022-07-10T00:20:14;4.88;;;4.47;;
48040;SDS011;33815;48.386;11.738;2022-07-10T00:22:40;5.03;;;4.47;;
48040;SDS011;33815;48.386;11.738;2022-07-10T00:25:07;5.30;;;4.80;;
48040;SDS011;33815;48.386;11.738;2022-07-10T00:27:36;5.47;;;4.65;;
48040;SDS011;33815;48.386;11.738;2022-07-10T00:30:02;7.28;;;5.30;;
48040;SDS011;33815;48.386;11.738;2022-07-10T00:32:28;5.82;;;4.80;;
48040;SDS011;33815;48.386;11.738;2022-07-10T00:34:53;7.18;;;4.88;;
48040;SDS011;33815;48.386;11.738;2022-07-10T00:37:19;6.13;;;5.53;;
48040;SDS011;33815;48.386;11.738;2022-07-10T00:39:46;6.13;;;5.53;;
48040;SDS011;33815;48.386;11.738;2022-07-10T00:42:12;6.35;;;5.65;;
48040;SDS011;33815;48.386;11.738;2022-07-10T00:44:39;7.28;;;5.53;;
48040;SDS011;33815;48.386;11.738;2022-07-10T00:47:05;5.32;;;4.85;;
48040;SDS011;33815;48.386;11.738;2022-07-10T00:49:31;6.43;;;5.82;;
48040;SDS011;33815;48.386;11.738;2022-07-10T00:51:58;6.45;;;5.75;;
48040;SDS011;33815;48.386;11.738;2022-07-10T00:54:25;6.18;;;5.57;;
48040;SDS011;33815;48.386;11.738;2022-07-10T00:56:51;8.05;;;5.82;;
48040;SDS011;33815;48.386;11.738;2022-07-10T00:59:17;8.45;;;6.05;;
48040;SDS011;33815;48.386;11.738;2022-07-10T01:01:43;9.02;;;6.13;;
48040;SDS011;33815;48.386;11.738;2022-07-10T01:04:09;6.75;;;6.13;;
48040;SDS011;33815;48.386;11.738;2022-07-10T01:06:34;10.80;;;7.70;;
48040;SDS011;33815;48.386;11.738;2022-07-10T01:09:00;9.05;;;7.57;;
48040;SDS011;33815;48.386;11.738;2022-07-10T01:11:25;8.30;;;6.80;;
48040;SDS011;33815;48.386;11.738;2022-07-10T01:13:50;7.45;;;6.85;;
48040;SDS011;33815;48.386;11.738;2022-07-10T01:16:16;9.82;;;7.63;;
48040;SDS011;33815;48.386;11.738;2022-07-10T01:18:42;8.07;;;7.30;;
48040;SDS011;33815;48.386;11.738;2022-07-10T01:23:52;8.85;;;7.70;;
48040;SDS011;33815;48.386;11.738;2022-07-10T01:26:17;8.00;;;7.32;;
48040;SDS011;33815;48.386;11.738;2022-07-10T01:28:45;8.82;;;8.07;;
48040;SDS011;33815;48.386;11.738;2022-07-10T01:31:13;8.70;;;7.85;;
48040;SDS011;33815;48.386;11.738;2022-07-10T01:33:38;9.48;;;7.30;;
48040;SDS011;33815;48.386;11.738;2022-07-10T01:36:04;9.55;;;8.55;;
48040;SDS011;33815;48.386;11.738;2022-07-10T01:38:29;8.73;;;7.82;;
48040;SDS011;33815;48.386;11.738;2022-07-10T01:40:54;8.60;;;7.78;;
48040;SDS011;33815;48.386;11.738;2022-07-10T01:43:20;8.13;;;7.40;;
48040;SDS011;33815;48.386;11.738;2022-07-10T01:45:45;7.80;;;7.10;;
48040;SDS011;33815;48.386;11.738;2022-07-10T01:48:10;11.43;;;7.90;;
48040;SDS011;33815;48.386;11.738;2022-07-10T01:50:36;8.70;;;7.68;;
48040;SDS011;33815;48.386;11.738;2022-07-10T01:53:01;8.80;;;7.83;;
48040;SDS011;33815;48.386;11.738;2022-07-10T01:55:26;9.98;;;7.85;;
48040;SDS011;33815;48.386;11.738;2022-07-10T01:57:52;8.85;;;7.28;;
48040;SDS011;33815;48.386;11.738;2022-07-10T02:00:17;11.00;;;7.97;;
48040;SDS011;33815;48.386;11.738;2022-07-10T02:02:42;9.27;;;7.85;;
48040;SDS011;33815;48.386;11.738;2022-07-10T02:05:27;10.75;;;8.45;;
48040;SDS011;33815;48.386;11.738;2022-07-10T02:07:53;9.80;;;7.90;;
48040;SDS011;33815;48.386;11.738;2022-07-10T02:10:18;8.23;;;7.45;;
48040;SDS011;33815;48.386;11.738;2022-07-10T02:12:43;9.30;;;8.30;;
48040;SDS011;33815;48.386;11.738;2022-07-10T02:15:09;9.38;;;8.48;;
48040;SDS011;33815;48.386;11.738;2022-07-10T02:17:34;11.10;;;8.10;;
48040;SDS011;33815;48.386;11.738;2022-07-10T02:19:59;11.55;;;9.32;;
48040;SDS011;33815;48.386;11.738;2022-07-10T02:22:25;8.98;;;8.18;;
48040;SDS011;33815;48.386;11.738;2022-07-10T02:24:50;11.10;;;8.83;;
48040;SDS011;33815;48.386;11.738;2022-07-10T02:27:15;9.82;;;8.93;;
48040;SDS011;33815;48.386;11.738;2022-07-10T02:29:41;10.10;;;9.13;;
48040;SDS011;33815;48.386;11.738;2022-07-10T02:32:06;10.15;;;9.15;;
48040;SDS011;33815;48.386;11.738;2022-07-10T02:34:32;10.20;;;8.57;;
48040;SDS011;33815;48.386;11.738;2022-07-10T02:36:57;10.37;;;9.37;;
48040;SDS011;33815;48.386;11.738;2022-07-10T02:39:22;10.45;;;9.13;;
48040;SDS011;33815;48.386;11.738;2022-07-10T02:41:48;10.50;;;9.40;;
48040;SDS011;33815;48.386;11.738;2022-07-10T02:44:13;10.25;;;9.18;;
48040;SDS011;33815;48.386;11.738;2022-07-10T02:46:39;10.48;;;9.27;;
48040;SDS011;33815;48.386;11.738;2022-07-10T02:49:04;10.50;;;9.40;;
48040;SDS011;33815;48.386;11.738;2022-07-10T02:51:30;10.90;;;8.88;;
48040;SDS011;33815;48.386;11.738;2022-07-10T02:53:55;10.00;;;9.10;;
48040;SDS011;33815;48.386;11.738;2022-07-10T02:56:20;10.23;;;8.93;;
48040;SDS011;33815;48.386;11.738;2022-07-10T02:58:45;10.45;;;9.45;;
48040;SDS011;33815;48.386;11.738;2022-07-10T03:01:11;10.48;;;8.35;;
48040;SDS011;33815;48.386;11.738;2022-07-10T03:03:36;13.75;;;9.85;;
48040;SDS011;33815;48.386;11.738;2022-07-10T03:06:01;12.18;;;9.48;;
48040;SDS011;33815;48.386;11.738;2022-07-10T03:08:27;10.32;;;9.20;;
48040;SDS011;33815;48.386;11.738;2022-07-10T03:10:52;10.00;;;8.85;;
48040;SDS011;33815;48.386;11.738;2022-07-10T03:13:17;12.63;;;10.02;;
48040;SDS011;33815;48.386;11.738;2022-07-10T03:15:43;10.00;;;9.00;;
48040;SDS011;33815;48.386;11.738;2022-07-10T03:18:08;10.27;;;9.20;;
48040;SDS011;33815;48.386;11.738;2022-07-10T03:20:33;10.88;;;9.70;;
48040;SDS011;33815;48.386;11.738;2022-07-10T03:22:59;11.18;;;9.85;;
48040;SDS011;33815;48.386;11.738;2022-07-10T03:25:24;10.68;;;9.57;;
48040;SDS011;33815;48.386;11.738;2022-07-10T03:27:49;11.35;;;10.30;;
48040;SDS011;33815;48.386;11.738;2022-07-10T03:30:14;18.95;;;10.85;;
48040;SDS011;33815;48.386;11.738;2022-07-10T03:32:40;12.67;;;11.23;;
48040;SDS011;33815;48.386;11.738;2022-07-10T03:35:05;12.05;;;10.07;;
48040;SDS011;33815;48.386;11.738;2022-07-10T03:37:31;14.48;;;11.23;;
48040;SDS011;33815;48.386;11.738;2022-07-10T03:39:56;11.63;;;10.43;;
48040;SDS011;33815;48.386;11.738;2022-07-10T03:42:21;14.05;;;10.20;;
48040;SDS011;33815;48.386;11.738;2022-07-10T03:44:47;10.68;;;9.60;;
48040;SDS011;33815;48.386;11.738;2022-07-10T03:47:12;14.73;;;11.50;;
48040;SDS011;33815;48.386;11.738;2022-07-10T03:49:37;11.68;;;10.43;;
48040;SDS011;33815;48.386;11.738;2022-07-10T03:52:06;10.98;;;9.88;;
48040;SDS011;33815;48.386;11.738;2022-07-10T03:54:32;19.95;;;9.60;;
48040;SDS011;33815;48.386;11.738;2022-07-10T03:56:58;13.75;;;10.20;;
48040;SDS011;33815;48.386;11.738;2022-07-10T03:59:42;10.55;;;9.55;;
48040;SDS011;33815;48.386;11.738;2022-07-10T04:02:08;11.00;;;10.00;;
48040;SDS011;33815;48.386;11.738;2022-07-10T04:04:33;10.35;;;9.10;;
48040;SDS011;33815;48.386;11.738;2022-07-10T04:06:59;11.23;;;10.13;;
48040;SDS011;33815;48.386;11.738;2022-07-10T04:09:24;12.38;;;9.63;;
48040;SDS011;33815;48.386;11.738;2022-07-10T04:11:50;16.80;;;10.20;;
48040;SDS011;33815;48.386;11.738;2022-07-10T04:14:15;13.02;;;11.63;;
48040;SDS011;33815;48.386;11.738;2022-07-10T04:16:41;13.57;;;10.15;;
48040;SDS011;33815;48.386;11.738;2022-07-10T04:19:06;12.82;;;11.50;;
48040;SDS011;33815;48.386;11.738;2022-07-10T04:21:32;15.98;;;11.73;;
48040;SDS011;33815;48.386;11.738;2022-07-10T04:23:57;12.45;;;11.18;;
48040;SDS011;33815;48.386;11.738;2022-07-10T04:26:22;12.50;;;11.30;;
48040;SDS011;33815;48.386;11.738;2022-07-10T04:28:48;12.75;;;11.45;;
48040;SDS011;33815;48.386;11.738;2022-07-10T04:31:13;11.70;;;10.60;;
48040;SDS011;33815;48.386;11.738;2022-07-10T04:33:38;14.33;;;10.93;;
48040;SDS011;33815;48.386;11.738;2022-07-10T04:36:03;12.25;;;10.75;;
48040;SDS011;33815;48.386;11.738;2022-07-10T04:38:29;14.27;;;12.10;;
48040;SDS011;33815;48.386;11.738;2022-07-10T04:40:56;14.23;;;12.82;;
48040;SDS011;33815;48.386;11.738;2022-07-10T04:43:21;13.45;;;12.15;;
48040;SDS011;33815;48.386;11.738;2022-07-10T04:45:47;14.63;;;12.60;;
48040;SDS011;33815;48.386;11.738;2022-07-10T04:48:12;17.07;;;12.53;;
48040;SDS011;33815;48.386;11.738;2022-07-10T04:50:37;17.20;;;12.40;;
48040;SDS011;33815;48.386;11.738;2022-07-10T04:53:02;12.75;;;11.45;;
48040;SDS011;33815;48.386;11.738;2022-07-10T04:55:28;12.90;;;11.60;;
48040;SDS011;33815;48.386;11.738;2022-07-10T04:57:53;12.48;;;11.27;;
48040;SDS011;33815;48.386;11.738;2022-07-10T05:00:18;13.82;;;10.98;;
48040;SDS011;33815;48.386;11.738;2022-07-10T05:02:44;13.57;;;10.93;;
48040;SDS011;33815;48.386;11.738;2022-07-10T05:05:09;11.55;;;10.35;;
48040;SDS011;33815;48.386;11.738;2022-07-10T05:07:34;13.02;;;11.77;;
48040;SDS011;33815;48.386;11.738;2022-07-10T05:10:00;12.00;;;10.70;;
48040;SDS011;33815;48.386;11.738;2022-07-10T05:12:25;10.05;;;9.07;;
48040;SDS011;33815;48.386;11.738;2022-07-10T05:14:51;11.80;;;9.93;;
48040;SDS011;33815;48.386;11.738;2022-07-10T05:17:16;10.88;;;9.82;;
48040;SDS011;33815;48.386;11.738;2022-07-10T05:19:41;10.48;;;9.38;;
48040;SDS011;33815;48.386;11.738;2022-07-10T05:22:07;10.48;;;9.52;;
48040;SDS011;33815;48.386;11.738;2022-07-10T05:24:34;10.32;;;9.40;;
48040;SDS011;33815;48.386;11.738;2022-07-10T05:26:59;9.98;;;9.00;;
48040;SDS011;33815;48.386;11.738;2022-07-10T05:29:24;9.70;;;8.67;;
48040;SDS011;33815;48.386;11.738;2022-07-10T05:31:50;8.93;;;7.93;;
48040;SDS011;33815;48.386;11.738;2022-07-10T05:34:15;10.18;;;9.27;;
48040;SDS011;33815;48.386;11.738;2022-07-10T05:36:40;10.43;;;9.52;;
48040;SDS011;33815;48.386;11.738;2022-07-10T05:39:06;10.93;;;9.40;;
48040;SDS011;33815;48.386;11.738;2022-07-10T05:41:31;10.63;;;9.60;;
48040;SDS011;33815;48.386;11.738;2022-07-10T05:43:57;11.52;;;10.43;;
48040;SDS011;33815;48.386;11.738;2022-07-10T05:46:23;11.25;;;10.23;;
48040;SDS011;33815;48.386;11.738;2022-07-10T05:48:49;11.68;;;10.00;;
48040;SDS011;33815;48.386;11.738;2022-07-10T05:51:14;13.37;;;10.43;;
48040;SDS011;33815;48.386;11.738;2022-07-10T05:53:39;11.43;;;10.17;;
48040;SDS011;33815;48.386;11.738;2022-07-10T05:56:05;11.90;;;10.80;;
48040;SDS011;33815;48.386;11.738;2022-07-10T05:58:30;10.35;;;9.35;;
48040;SDS011;33815;48.386;11.738;2022-07-10T06:00:55;11.83;;;9.47;;
48040;SDS011;33815;48.386;11.738;2022-07-10T06:03:21;10.30;;;9.30;;
48040;SDS011;33815;48.386;11.738;2022-07-10T06:05:46;11.13;;;10.13;;
48040;SDS011;33815;48.386;11.738;2022-07-10T06:08:12;12.80;;;11.30;;
48040;SDS011;33815;48.386;11.738;2022-07-10T06:10:37;10.60;;;9.48;;
48040;SDS011;33815;48.386;11.738;2022-07-10T06:13:05;12.48;;;10.43;;
48040;SDS011;33815;48.386;11.738;2022-07-10T06:15:30;10.77;;;9.13;;
48040;SDS011;33815;48.386;11.738;2022-07-10T06:17:58;9.67;;;8.67;;
48040;SDS011;33815;48.386;11.738;2022-07-10T06:20:24;11.43;;;9.55;;
48040;SDS011;33815;48.386;11.738;2022-07-10T06:22:50;10.40;;;9.35;;
48040;SDS011;33815;48.386;11.738;2022-07-10T06:25:15;9.52;;;8.63;;
48040;SDS011;33815;48.386;11.738;2022-07-10T06:27:40;10.00;;;8.77;;
48040;SDS011;33815;48.386;11.738;2022-07-10T06:30:06;13.13;;;9.27;;
48040;SDS011;33815;48.386;11.738;2022-07-10T06:32:31;9.00;;;8.20;;
48040;SDS011;33815;48.386;11.738;2022-07-10T06:34:57;10.75;;;9.63;;
48040;SDS011;33815;48.386;11.738;2022-07-10T06:37:22;9.90;;;8.82;;
48040;SDS011;33815;48.386;11.738;2022-07-10T06:39:47;15.10;;;8.32;;
48040;SDS011;33815;48.386;11.738;2022-07-10T06:42:13;9.30;;;8.50;;
48040;SDS011;33815;48.386;11.738;2022-07-10T06:44:38;9.25;;;8.35;;
48040;SDS011;33815;48.386;11.738;2022-07-10T06:47:04;9.45;;;8.65;;
48040;SDS011;33815;48.386;11.738;2022-07-10T06:49:51;10.95;;;8.25;;
48040;SDS011;33815;48.386;11.738;2022-07-10T06:52:17;7.93;;;7.22;;
48040;SDS011;33815;48.386;11.738;2022-07-10T06:54:42;11.05;;;7.50;;
48040;SDS011;33815;48.386;11.738;2022-07-10T06:57:08;8.27;;;7.47;;
48040;SDS011;33815;48.386;11.738;2022-07-10T06:59:34;7.85;;;6.97;;
48040;SDS011;33815;48.386;11.738;2022-07-10T07:01:59;8.43;;;7.43;;
48040;SDS011;33815;48.386;11.738;2022-07-10T07:04:25;8.95;;;8.05;;
48040;SDS011;33815;48.386;11.738;2022-07-10T07:06:50;8.00;;;7.30;;
48040;SDS011;33815;48.386;11.738;2022-07-10T07:09:15;8.37;;;7.60;;
48040;SDS011;33815;48.386;11.738;2022-07-10T07:11:41;8.50;;;7.80;;
48040;SDS011;33815;48.386;11.738;2022-07-10T07:14:06;7.80;;;7.20;;
48040;SDS011;33815;48.386;11.738;2022-07-10T07:16:31;10.68;;;7.45;;
48040;SDS011;33815;48.386;11.738;2022-07-10T07:19:04;7.70;;;6.93;;
48040;SDS011;33815;48.386;11.738;2022-07-10T07:21:30;7.95;;;7.22;;
48040;SDS011;33815;48.386;11.738;2022-07-10T07:24:17;7.13;;;6.60;;
48040;SDS011;33815;48.386;11.738;2022-07-10T07:26:44;7.35;;;6.75;;
48040;SDS011;33815;48.386;11.738;2022-07-10T07:29:12;7.10;;;6.38;;
48040;SDS011;33815;48.386;11.738;2022-07-10T07:31:41;7.30;;;6.60;;
48040;SDS011;33815;48.386;11.738;2022-07-10T07:34:06;7.28;;;6.57;;
48040;SDS011;33815;48.386;11.738;2022-07-10T07:36:32;7.15;;;5.63;;
48040;SDS011;33815;48.386;11.738;2022-07-10T07:38:57;6.32;;;5.25;;
48040;SDS011;33815;48.386;11.738;2022-07-10T07:41:22;6.50;;;4.90;;
48040;SDS011;33815;48.386;11.738;2022-07-10T07:43:48;5.70;;;5.20;;
48040;SDS011;33815;48.386;11.738;2022-07-10T07:46:14;8.10;;;5.35;;
48040;SDS011;33815;48.386;11.738;2022-07-10T07:48:39;4.72;;;4.10;;
48040;SDS011;33815;48.386;11.738;2022-07-10T07:51:05;5.10;;;3.85;;
48040;SDS011;33815;48.386;11.738;2022-07-10T07:53:31;3.72;;;3.28;;
48040;SDS011;33815;48.386;11.738;2022-07-10T07:55:56;3.95;;;3.10;;
48040;SDS011;33815;48.386;11.738;2022-07-10T07:58:21;6.57;;;3.07;;
48040;SDS011;33815;48.386;11.738;2022-07-10T08:00:47;4.20;;;3.13;;
48040;SDS011;33815;48.386;11.738;2022-07-10T08:03:12;7.70;;;2.97;;
48040;SDS011;33815;48.386;11.738;2022-07-10T08:05:37;6.03;;;2.60;;
48040;SDS011;33815;48.386;11.738;2022-07-10T08:08:02;5.03;;;2.60;;
48040;SDS011;33815;48.386;11.738;2022-07-10T08:10:33;3.50;;;2.22;;
48040;SDS011;33815;48.386;11.738;2022-07-10T08:12:59;4.72;;;2.33;;
48040;SDS011;33815;48.386;11.738;2022-07-10T08:15:24;6.03;;;1.70;;
48040;SDS011;33815;48.386;11.738;2022-07-10T08:17:50;3.75;;;1.90;;
48040;SDS011;33815;48.386;11.738;2022-07-10T08:20:17;1.63;;;1.52;;
48040;SDS011;33815;48.386;11.738;2022-07-10T08:22:43;6.20;;;1.70;;
48040;SDS011;33815;48.386;11.738;2022-07-10T08:25:09;3.22;;;1.35;;
48040;SDS011;33815;48.386;11.738;2022-07-10T08:27:35;2.40;;;1.48;;
48040;SDS011;33815;48.386;11.738;2022-07-10T08:30:00;3.83;;;1.35;;
48040;SDS011;33815;48.386;11.738;2022-07-10T08:32:26;2.60;;;1.80;;
48040;SDS011;33815;48.386;11.738;2022-07-10T08:34:52;3.83;;;1.90;;
48040;SDS011;33815;48.386;11.738;2022-07-10T08:37:17;4.68;;;2.13;;
48040;SDS011;33815;48.386;11.738;2022-07-10T08:39:44;2.15;;;1.70;;
48040;SDS011;33815;48.386;11.738;2022-07-10T08:42:10;3.28;;;2.25;;
48040;SDS011;33815;48.386;11.738;2022-07-10T08:44:35;4.00;;;1.58;;
48040;SDS011;33815;48.386;11.738;2022-07-10T08:47:02;2.30;;;1.38;;
48040;SDS011;33815;48.386;11.738;2022-07-10T08:49:28;1.67;;;1.58;;
48040;SDS011;33815;48.386;11.738;2022-07-10T08:54:25;4.47;;;1.23;;
48040;SDS011;33815;48.386;11.738;2022-07-10T08:56:52;2.35;;;1.50;;
48040;SDS011;33815;48.386;11.738;2022-07-10T08:59:18;3.55;;;1.52;;
48040;SDS011;33815;48.386;11.738;2022-07-10T09:01:44;4.00;;;1.67;;
48040;SDS011;33815;48.386;11.738;2022-07-10T09:04:16;4.38;;;1.77;;
48040;SDS011;33815;48.386;11.738;2022-07-10T09:06:43;4.93;;;1.55;;
48040;SDS011;33815;48.386;11.738;2022-07-10T09:09:08;3.20;;;2.17;;
48040;SDS011;33815;48.386;11.738;2022-07-10T09:11:35;5.88;;;1.40;;
48040;SDS011;33815;48.386;11.738;2022-07-10T09:14:02;3.13;;;1.38;;
48040;SDS011;33815;48.386;11.738;2022-07-10T09:16:33;6.95;;;1.75;;
48040;SDS011;33815;48.386;11.738;2022-07-10T09:21:49;2.38;;;1.38;;
48040;SDS011;33815;48.386;11.738;2022-07-10T09:24:16;4.38;;;1.20;;
48040;SDS011;33815;48.386;11.738;2022-07-10T09:26:45;2.33;;;1.17;;
48040;SDS011;33815;48.386;11.738;2022-07-10T09:29:23;3.58;;;1.30;;
48040;SDS011;33815;48.386;11.738;2022-07-10T09:31:49;4.60;;;1.23;;
48040;SDS011;33815;48.386;11.738;2022-07-10T09:42:26;2.00;;;1.30;;
48040;SDS011;33815;48.386;11.738;2022-07-10T09:45:11;1.20;;;1.10;;
48040;SDS011;33815;48.386;11.738;2022-07-10T09:47:38;2.00;;;0.88;;
48040;SDS011;33815;48.386;11.738;2022-07-10T09:50:04;3.03;;;1.48;;
48040;SDS011;33815;48.386;11.738;2022-07-10T09:52:45;2.38;;;1.17;;
48040;SDS011;33815;48.386;11.738;2022-07-10T09:55:12;5.00;;;1.63;;
48040;SDS011;33815;48.386;11.738;2022-07-10T09:57:38;2.53;;;1.30;;
48040;SDS011;33815;48.386;11.738;2022-07-10T10:00:06;2.50;;;1.60;;
48040;SDS011;33815;48.386;11.738;2022-07-10T10:02:32;6.43;;;1.30;;
48040;SDS011;33815;48.386;11.738;2022-07-10T10:05:00;5.75;;;1.63;;
48040;SDS011;33815;48.386;11.738;2022-07-10T10:07:26;5.90;;;1.20;;
48040;SDS011;33815;48.386;11.738;2022-07-10T10:09:52;3.38;;;1.00;;
48040;SDS011;33815;48.386;11.738;2022-07-10T10:12:44;4.25;;;1.30;;
48040;SDS011;33815;48.386;11.738;2022-07-10T10:15:10;2.67;;;1.40;;
48040;SDS011;33815;48.386;11.738;2022-07-10T10:17:36;2.13;;;1.13;;
48040;SDS011;33815;48.386;11.738;2022-07-10T10:20:03;2.05;;;1.10;;
48040;SDS011;33815;48.386;11.738;2022-07-10T10:22:48;4.68;;;1.30;;
48040;SDS011;33815;48.386;11.738;2022-07-10T10:25:14;2.75;;;1.17;;
48040;SDS011;33815;48.386;11.738;2022-07-10T10:27:42;1.85;;;1.48;;
48040;SDS011;33815;48.386;11.738;2022-07-10T10:30:08;1.83;;;1.17;;
48040;SDS011;33815;48.386;11.738;2022-07-10T10:32:39;5.72;;;2.40;;
48040;SDS011;33815;48.386;11.738;2022-07-10T10:35:05;5.28;;;1.23;;
48040;SDS011;33815;48.386;11.738;2022-07-10T10:37:37;2.40;;;1.33;;
48040;SDS011;33815;48.386;11.738;2022-07-10T10:40:06;4.03;;;1.40;;
48040;SDS011;33815;48.386;11.738;2022-07-10T10:42:35;1.38;;;1.13;;
48040;SDS011;33815;48.386;11.738;2022-07-10T10:48:15;6.25;;;1.60;;
48040;SDS011;33815;48.386;11.738;2022-07-10T10:58:44;7.18;;;1.33;;
48040;SDS011;33815;48.386;11.738;2022-07-10T11:01:23;3.88;;;0.95;;
48040;SDS011;33815;48.386;11.738;2022-07-10T11:06:52;2.72;;;0.90;;
48040;SDS011;33815;48.386;11.738;2022-07-10T11:09:21;1.92;;;0.95;;
48040;SDS011;33815;48.386;11.738;2022-07-10T11:14:38;1.90;;;0.77;;
48040;SDS011;33815;48.386;11.738;2022-07-10T11:17:07;1.05;;;0.85;;
48040;SDS011;33815;48.386;11.738;2022-07-10T11:19:34;2.33;;;1.05;;
48040;SDS011;33815;48.386;11.738;2022-07-10T11:27:26;2.75;;;1.20;;
48040;SDS011;33815;48.386;11.738;2022-07-10T11:29:59;0.80;;;0.80;;
48040;SDS011;33815;48.386;11.738;2022-07-10T11:32:25;3.55;;;1.00;;
48040;SDS011;33815;48.386;11.738;2022-07-10T11:34:51;3.17;;;0.90;;
48040;SDS011;33815;48.386;11.738;2022-07-10T11:37:17;2.63;;;1.30;;
48040;SDS011;33815;48.386;11.738;2022-07-10T11:39:42;2.45;;;0.88;;
48040;SDS011;33815;48.386;11.738;2022-07-10T11:42:07;2.08;;;0.80;;
48040;SDS011;33815;48.386;11.738;2022-07-10T11:44:33;1.50;;;0.70;;
48040;SDS011;33815;48.386;11.738;2022-07-10T11:46:58;1.67;;;0.88;;
48040;SDS011;33815;48.386;11.738;2022-07-10T11:49:24;2.75;;;0.80;;
48040;SDS011;33815;48.386;11.738;2022-07-10T11:51:50;1.05;;;0.80;;
48040;SDS011;33815;48.386;11.738;2022-07-10T11:54:16;3.95;;;0.93;;
48040;SDS011;33815;48.386;11.738;2022-07-10T11:56:47;1.52;;;0.85;;
48040;SDS011;33815;48.386;11.738;2022-07-10T11:59:14;3.75;;;0.82;;
48040;SDS011;33815;48.386;11.738;2022-07-10T12:01:42;1.95;;;0.88;;
48040;SDS011;33815;48.386;11.738;2022-07-10T12:04:09;1.20;;;0.85;;
48040;SDS011;33815;48.386;11.738;2022-07-10T12:06:36;2.70;;;1.05;;
48040;SDS011;33815;48.386;11.738;2022-07-10T12:11:30;5.00;;;1.60;;
48040;SDS011;33815;48.386;11.738;2022-07-10T12:14:08;4.30;;;1.00;;
48040;SDS011;33815;48.386;11.738;2022-07-10T12:16:44;2.50;;;0.80;;
48040;SDS011;33815;48.386;11.738;2022-07-10T12:19:12;2.10;;;0.70;;
48040;SDS011;33815;48.386;11.738;2022-07-10T12:21:41;3.40;;;0.90;;
48040;SDS011;33815;48.386;11.738;2022-07-10T12:24:08;0.82;;;0.68;;
48040;SDS011;33815;48.386;11.738;2022-07-10T12:26:33;2.25;;;0.70;;
48040;SDS011;33815;48.386;11.738;2022-07-10T12:29:00;1.02;;;0.68;;
48040;SDS011;33815;48.386;11.738;2022-07-10T12:31:28;2.42;;;0.95;;
48040;SDS011;33815;48.386;11.738;2022-07-10T12:34:02;1.58;;;1.00;;
48040;SDS011;33815;48.386;11.738;2022-07-10T12:36:42;3.58;;;0.75;;
48040;SDS011;33815;48.386;11.738;2022-07-10T12:39:15;4.03;;;1.20;;
48040;SDS011;33815;48.386;11.738;2022-07-10T12:47:02;1.23;;;0.73;;
48040;SDS011;33815;48.386;11.738;2022-07-10T12:54:46;1.13;;;0.60;;
48040;SDS011;33815;48.386;11.738;2022-07-10T12:57:11;1.00;;;0.80;;
48040;SDS011;33815;48.386;11.738;2022-07-10T12:59:37;3.15;;;1.10;;
48040;SDS011;33815;48.386;11.738;2022-07-10T13:02:15;1.88;;;0.90;;
48040;SDS011;33815;48.386;11.738;2022-07-10T13:04:54;2.47;;;0.75;;
48040;SDS011;33815;48.386;11.738;2022-07-10T13:07:28;1.20;;;0.70;;
48040;SDS011;33815;48.386;11.738;2022-07-10T13:09:54;1.52;;;0.70;;
48040;SDS011;33815;48.386;11.738;2022-07-10T13:12:19;7.73;;;1.00;;
48040;SDS011;33815;48.386;11.738;2022-07-10T13:14:45;2.22;;;0.60;;
48040;SDS011;33815;48.386;11.738;2022-07-10T13:17:11;1.90;;;0.70;;
48040;SDS011;33815;48.386;11.738;2022-07-10T13:19:36;2.05;;;0.88;;
48040;SDS011;33815;48.386;11.738;2022-07-10T13:22:02;1.50;;;0.70;;
48040;SDS011;33815;48.386;11.738;2022-07-10T13:24:27;2.05;;;0.60;;
48040;SDS011;33815;48.386;11.738;2022-07-10T13:26:55;1.80;;;0.63;;
48040;SDS011;33815;48.386;11.738;2022-07-10T13:29:22;2.63;;;0.90;;
48040;SDS011;33815;48.386;11.738;2022-07-10T13:31:47;3.08;;;0.98;;
48040;SDS011;33815;48.386;11.738;2022-07-10T13:34:12;1.83;;;0.80;;
48040;SDS011;33815;48.386;11.738;2022-07-10T13:36:38;2.33;;;0.60;;
48040;SDS011;33815;48.386;11.738;2022-07-10T13:39:03;8.40;;;0.70;;
48040;SDS011;33815;48.386;11.738;2022-07-10T13:41:28;1.63;;;1.07;;
48040;SDS011;33815;48.386;11.738;2022-07-10T13:43:53;2.53;;;1.00;;
48040;SDS011;33815;48.386;11.738;2022-07-10T13:46:19;1.53;;;0.63;;
48040;SDS011;33815;48.386;11.738;2022-07-10T13:48:44;2.60;;;0.90;;
48040;SDS011;33815;48.386;11.738;2022-07-10T13:51:09;2.83;;;0.98;;
48040;SDS011;33815;48.386;11.738;2022-07-10T13:53:35;4.70;;;1.02;;
48040;SDS011;33815;48.386;11.738;2022-07-10T13:56:00;1.35;;;0.90;;
48040;SDS011;33815;48.386;11.738;2022-07-10T13:58:26;1.42;;;0.70;;
48040;SDS011;33815;48.386;11.738;2022-07-10T14:00:51;3.33;;;0.75;;
48040;SDS011;33815;48.386;11.738;2022-07-10T14:03:16;1.88;;;0.80;;
48040;SDS011;33815;48.386;11.738;2022-07-10T14:05:42;4.60;;;1.17;;
48040;SDS011;33815;48.386;11.738;2022-07-10T14:08:07;1.53;;;0.73;;
48040;SDS011;33815;48.386;11.738;2022-07-10T14:10:32;0.77;;;0.68;;
48040;SDS011;33815;48.386;11.738;2022-07-10T14:12:58;1.88;;;0.80;;
48040;SDS011;33815;48.386;11.738;2022-07-10T14:15:24;0.60;;;0.60;;
48040;SDS011;33815;48.386;11.738;2022-07-10T14:17:50;1.38;;;0.80;;
48040;SDS011;33815;48.386;11.738;2022-07-10T14:20:16;4.68;;;1.85;;
48040;SDS011;33815;48.386;11.738;2022-07-10T14:22:42;2.17;;;0.80;;
48040;SDS011;33815;48.386;11.738;2022-07-10T14:25:10;1.83;;;0.70;;
48040;SDS011;33815;48.386;11.738;2022-07-10T14:27:36;1.30;;;0.50;;
48040;SDS011;33815;48.386;11.738;2022-07-10T14:30:01;3.15;;;0.70;;
48040;SDS011;33815;48.386;11.738;2022-07-10T14:32:27;1.27;;;0.70;;
48040;SDS011;33815;48.386;11.738;2022-07-10T14:34:52;2.83;;;1.00;;
48040;SDS011;33815;48.386;11.738;2022-07-10T14:37:17;0.97;;;0.70;;
48040;SDS011;33815;48.386;11.738;2022-07-10T14:39:43;2.67;;;0.60;;
48040;SDS011;33815;48.386;11.738;2022-07-10T14:42:11;2.95;;;0.73;;
48040;SDS011;33815;48.386;11.738;2022-07-10T14:44:37;2.47;;;0.80;;
48040;SDS011;33815;48.386;11.738;2022-07-10T14:47:02;1.95;;;0.70;;
48040;SDS011;33815;48.386;11.738;2022-07-10T14:49:28;1.42;;;0.68;;
48040;SDS011;33815;48.386;11.738;2022-07-10T14:51:53;0.90;;;0.70;;
48040;SDS011;33815;48.386;11.738;2022-07-10T14:54:20;1.83;;;0.70;;
48040;SDS011;33815;48.386;11.738;2022-07-10T14:56:45;5.22;;;1.10;;
48040;SDS011;33815;48.386;11.738;2022-07-10T14:59:10;5.00;;;2.67;;
48040;SDS011;33815;48.386;11.738;2022-07-10T15:01:36;1.80;;;1.27;;
48040;SDS011;33815;48.386;11.738;2022-07-10T15:04:01;2.58;;;0.60;;
48040;SDS011;33815;48.386;11.738;2022-07-10T15:06:26;0.97;;;0.70;;
48040;SDS011;33815;48.386;11.738;2022-07-10T15:08:52;3.67;;;1.30;;
48040;SDS011;33815;48.386;11.738;2022-07-10T15:11:17;2.35;;;1.20;;
48040;SDS011;33815;48.386;11.738;2022-07-10T15:13:46;3.08;;;0.80;;
48040;SDS011;33815;48.386;11.738;2022-07-10T15:16:12;4.57;;;0.55;;